createdAt,value
2023-09-01T00:03:40.128Z,100598.09
2023-09-01T00:08:41.961Z,100599.91
2023-09-01T00:13:43.483Z,100606.72
2023-09-01T00:18:45.053Z,100599.38
2023-09-01T00:23:46.845Z,100602.78
2023-09-01T00:28:48.372Z,100602.44
2023-09-01T00:33:49.865Z,100603.09
2023-09-01T00:38:51.354Z,100601.97
2023-09-01T00:43:52.854Z,100612.38
2023-09-01T00:48:57.409Z,100604.75
2023-09-01T00:53:58.903Z,100607.31
2023-09-01T00:59:00.618Z,100619.41
2023-09-01T01:04:02.323Z,100609.75
2023-09-01T01:09:12.685Z,100614.50
2023-09-01T01:14:21.124Z,100619.75
2023-09-01T01:19:44.234Z,100622.88
2023-09-01T01:24:45.784Z,100622.44
2023-09-01T01:29:48.570Z,100614.69
2023-09-01T01:35:07.874Z,100620.78
2023-09-01T01:40:09.602Z,100620.06
2023-09-01T01:45:11.110Z,100618.91
2023-09-01T01:50:12.810Z,100625.13
2023-09-01T01:55:14.346Z,100625.31
2023-09-01T02:00:16.195Z,100626.81
2023-09-01T02:05:17.769Z,100633.97
2023-09-01T02:10:20.390Z,100628.19
2023-09-01T02:15:21.910Z,100621.66
2023-09-01T02:20:23.419Z,100631.22
2023-09-01T02:25:24.934Z,100636.47
2023-09-01T02:30:26.487Z,100633.22
2023-09-01T02:35:28.227Z,100643.66
2023-09-01T02:40:29.728Z,100648.22
2023-09-01T02:45:31.230Z,100637.84
2023-09-01T02:50:32.813Z,100642.19
2023-09-01T02:55:34.330Z,100646.81
2023-09-01T03:00:38.007Z,100647.00
2023-09-01T03:05:39.691Z,100648.19
2023-09-01T03:10:41.256Z,100642.88
2023-09-01T03:15:43.167Z,100641.53
2023-09-01T03:20:44.677Z,100655.50
2023-09-01T03:25:56.453Z,100642.09
2023-09-01T03:30:57.979Z,100655.31
2023-09-01T03:36:02.169Z,100658.09
2023-09-01T03:41:05.562Z,100658.56
2023-09-01T03:46:07.156Z,100662.25
2023-09-01T03:51:18.053Z,100659.72
2023-09-01T03:56:20.697Z,100648.03
2023-09-01T04:01:22.323Z,100662.31
2023-09-01T04:06:23.871Z,100658.25
2023-09-01T04:11:25.398Z,100660.78
2023-09-01T04:16:26.977Z,100658.69
2023-09-01T04:21:28.541Z,100662.50
2023-09-01T04:26:30.060Z,100657.41
2023-09-01T04:31:33.380Z,100665.38
2023-09-01T04:36:46.485Z,100666.13
2023-09-01T04:41:48.900Z,100672.09
2023-09-01T04:46:50.419Z,100668.84
2023-09-01T04:51:52.300Z,100681.47
2023-09-01T04:56:53.800Z,100675.06
2023-09-01T05:01:55.615Z,100678.13
2023-09-01T05:06:57.135Z,100683.78
2023-09-01T05:11:58.665Z,100676.41
2023-09-01T05:17:01.361Z,100696.28
2023-09-01T05:22:03.768Z,100696.66
2023-09-01T05:27:05.302Z,100694.00
2023-09-01T05:32:06.865Z,100701.63
2023-09-01T05:37:09.158Z,100704.66
2023-09-01T05:42:11.067Z,100705.84
2023-09-01T05:47:12.563Z,100712.66
2023-09-01T05:52:14.051Z,100713.28
2023-09-01T05:57:15.552Z,100725.59
2023-09-01T06:02:17.077Z,100724.25
2023-09-01T06:07:18.614Z,100720.72
2023-09-01T06:12:20.218Z,100726.56
2023-09-01T06:17:32.613Z,100734.66
2023-09-01T06:22:42.072Z,100726.44
2023-09-01T06:27:43.590Z,100731.41
2023-09-01T06:32:47.373Z,100750.34
2023-09-01T06:37:50.727Z,100755.47
2023-09-01T06:42:52.215Z,100754.88
2023-09-01T06:47:56.456Z,100760.25
2023-09-01T06:52:58.165Z,100765.28
2023-09-01T06:58:00.859Z,100765.28
2023-09-01T07:03:02.537Z,100770.66
2023-09-01T07:08:04.364Z,100772.34
2023-09-01T07:13:09.702Z,100774.63
2023-09-01T07:18:11.200Z,100776.66
2023-09-01T07:23:12.741Z,100768.75
2023-09-01T07:28:14.526Z,100776.19
2023-09-01T07:33:16.434Z,100778.13
2023-09-01T07:38:18.228Z,100780.97
2023-09-01T07:43:19.830Z,100779.13
2023-09-01T07:48:22.949Z,100787.16
2023-09-01T07:53:24.720Z,100782.00
2023-09-01T07:58:26.249Z,100785.56
2023-09-01T08:03:27.864Z,100787.72
2023-09-01T08:08:29.598Z,100789.13
2023-09-01T08:13:30.996Z,100793.56
2023-09-01T08:18:33.651Z,100793.28
2023-09-01T08:23:35.201Z,100803.03
2023-09-01T08:28:36.770Z,100810.06
2023-09-01T08:33:38.315Z,100820.19
2023-09-01T08:38:42.881Z,100821.78
2023-09-01T08:43:45.483Z,100819.38
2023-09-01T08:48:47.007Z,100829.91
2023-09-01T08:53:49.950Z,100826.00
2023-09-01T08:58:51.459Z,100835.81
2023-09-01T09:03:53.035Z,100830.47
2023-09-01T09:09:06.162Z,100833.19
2023-09-01T09:14:10.426Z,100828.31
2023-09-01T09:19:17.765Z,100826.50
2023-09-01T09:24:35.259Z,100831.66
2023-09-01T09:29:41.602Z,100836.81
2023-09-01T09:34:43.843Z,100843.09
2023-09-01T09:39:45.359Z,100844.31
2023-09-01T09:44:50.691Z,100850.44
2023-09-01T09:49:52.223Z,100857.63
2023-09-01T09:54:58.202Z,100852.56
2023-09-01T10:00:11.343Z,100861.69
2023-09-01T10:05:14.055Z,100874.06
2023-09-01T10:10:15.572Z,100869.47
2023-09-01T10:15:17.122Z,100883.38
2023-09-01T10:20:18.655Z,100888.47
2023-09-01T10:25:20.902Z,100893.63
2023-09-01T10:30:29.281Z,100889.91
2023-09-01T10:35:44.499Z,100891.03
2023-09-01T10:40:46.851Z,100881.84
2023-09-01T10:46:14.322Z,100891.88
2023-09-01T10:51:23.044Z,100892.06
2023-09-01T10:56:24.683Z,100884.31
2023-09-01T11:01:30.105Z,100890.88
2023-09-01T11:06:57.288Z,100890.19
2023-09-01T11:11:58.798Z,100900.69
2023-09-01T11:17:04.867Z,100902.91
2023-09-01T11:22:07.599Z,100905.13
2023-09-01T11:27:09.107Z,100915.50
2023-09-01T11:32:10.640Z,100910.34
2023-09-01T11:37:12.168Z,100919.38
2023-09-01T11:42:13.669Z,100934.31
2023-09-01T11:47:15.179Z,100928.50
2023-09-01T11:52:16.672Z,100916.91
2023-09-01T11:57:18.326Z,100932.31
2023-09-01T12:02:20.436Z,100931.34
2023-09-01T12:07:29.316Z,100927.44
2023-09-01T12:12:37.485Z,100927.50
2023-09-01T12:17:39.078Z,100938.50
2023-09-01T12:22:40.669Z,100946.09
2023-09-01T12:27:42.056Z,100959.44
2023-09-01T12:32:43.567Z,100959.97
2023-09-01T12:37:44.963Z,100963.72
2023-09-01T12:42:46.492Z,100959.47
2023-09-01T12:47:47.886Z,100969.63
2023-09-01T12:52:49.931Z,100969.03
2023-09-01T12:57:54.904Z,100972.69
2023-09-01T13:02:56.532Z,100977.63
2023-09-01T13:07:59.858Z,100966.94
2023-09-01T13:13:01.371Z,100961.63
2023-09-01T13:18:02.870Z,100966.13
2023-09-01T13:23:04.413Z,100958.56
2023-09-01T13:28:05.965Z,100961.63
2023-09-01T13:33:07.512Z,100963.56
2023-09-01T13:38:09.101Z,100978.00
2023-09-01T13:43:10.621Z,100969.38
2023-09-01T13:48:12.054Z,100978.56
2023-09-01T13:53:13.960Z,100977.63
2023-09-01T13:58:15.713Z,100967.22
2023-09-01T14:03:17.358Z,100971.00
2023-09-01T14:08:19.213Z,100977.34
2023-09-01T14:13:20.803Z,100977.31
2023-09-01T14:18:22.290Z,100977.19
2023-09-01T14:23:24.646Z,100980.75
2023-09-01T14:28:26.425Z,100974.50
2023-09-01T14:33:41.475Z,100971.19
2023-09-01T14:38:49.041Z,100979.84
2023-09-01T14:43:50.509Z,100989.03
2023-09-01T14:48:52.024Z,100993.94
2023-09-01T14:53:53.524Z,100989.47
2023-09-01T14:58:57.354Z,100984.78
2023-09-01T15:03:59.391Z,100992.97
2023-09-01T15:09:01.118Z,100994.50
2023-09-01T15:14:02.658Z,100987.19
2023-09-01T15:19:04.749Z,100991.72
2023-09-01T15:24:06.755Z,101000.53
2023-09-01T15:29:08.575Z,100995.78
2023-09-01T15:34:10.104Z,101012.34
2023-09-01T15:39:11.610Z,101009.09
2023-09-01T15:44:14.037Z,101008.97
2023-09-01T15:49:15.618Z,101004.13
2023-09-01T15:54:17.158Z,101004.13
2023-09-01T15:59:18.745Z,101011.16
2023-09-01T16:04:20.302Z,101002.34
2023-09-01T16:09:21.874Z,101006.97
2023-09-01T16:14:23.384Z,101011.41
2023-09-01T16:19:24.919Z,101005.53
2023-09-01T16:24:26.441Z,101009.25
2023-09-01T16:29:28.214Z,101013.19
2023-09-01T16:34:29.679Z,101015.50
2023-09-01T16:39:31.876Z,101018.28
2023-09-01T16:44:35.098Z,101024.75
2023-09-01T16:49:36.674Z,101022.72
2023-09-01T16:54:38.843Z,101032.09
2023-09-01T16:59:40.412Z,101028.03
2023-09-01T17:04:43.452Z,101032.09
2023-09-01T17:09:46.275Z,101036.19
2023-09-01T17:14:47.796Z,101049.22
2023-09-01T17:19:49.618Z,101056.13
2023-09-01T17:24:51.192Z,101058.25
2023-09-01T17:29:52.802Z,101067.69
2023-09-01T17:34:55.773Z,101061.00
2023-09-01T17:39:57.505Z,101058.50
2023-09-01T17:44:59.029Z,101071.16
2023-09-01T17:50:00.587Z,101065.97
2023-09-01T17:55:02.150Z,101084.66
2023-09-01T18:00:08.787Z,101076.25
2023-09-01T18:05:12.124Z,101083.28
2023-09-01T18:10:13.634Z,101084.78
2023-09-01T18:15:18.771Z,101095.38
2023-09-01T18:20:20.395Z,101099.41
2023-09-01T18:25:22.016Z,101107.16
2023-09-01T18:30:24.296Z,101111.47
2023-09-01T18:35:25.803Z,101123.00
2023-09-01T18:40:27.323Z,101123.13
2023-09-01T18:45:30.942Z,101136.53
2023-09-01T18:50:32.580Z,101136.66
2023-09-01T19:00:36.941Z,101142.34
2023-09-01T19:05:38.665Z,101139.22
2023-09-01T19:10:40.552Z,101145.50
2023-09-01T19:15:42.139Z,101149.00
2023-09-01T19:20:43.730Z,101168.09
2023-09-01T19:25:45.347Z,101172.22
2023-09-01T19:30:47.831Z,101181.72
2023-09-01T19:35:49.792Z,101180.25
2023-09-01T19:40:53.189Z,101187.41
2023-09-01T19:45:54.787Z,101188.03
2023-09-01T19:50:56.287Z,101178.78
2023-09-01T19:56:08.636Z,101189.50
2023-09-01T20:01:11.354Z,101192.25
2023-09-01T20:06:16.742Z,101193.94
2023-09-01T20:11:22.525Z,101209.63
2023-09-01T20:16:30.820Z,101206.91
2023-09-01T20:21:32.564Z,101214.28
2023-09-01T20:26:34.088Z,101222.50
2023-09-01T20:31:37.974Z,101217.53
2023-09-01T20:36:40.090Z,101211.09
2023-09-01T20:41:41.912Z,101219.31
2023-09-01T20:46:43.414Z,101223.72
2023-09-01T20:51:45.442Z,101216.88
2023-09-01T20:56:47.103Z,101222.38
2023-09-01T21:01:49.048Z,101218.88
2023-09-01T21:06:53.303Z,101218.78
2023-09-01T21:11:54.879Z,101229.34
2023-09-01T21:16:56.728Z,101238.75
2023-09-01T21:21:58.446Z,101248.28
2023-09-01T21:26:59.991Z,101258.00
2023-09-01T21:32:01.498Z,101250.94
2023-09-01T21:37:04.030Z,101255.03
2023-09-01T21:42:06.327Z,101262.44
2023-09-01T21:47:07.826Z,101267.25
2023-09-01T21:52:09.373Z,101273.91
2023-09-01T21:57:10.991Z,101277.19
2023-09-01T22:02:12.544Z,101277.56
2023-09-01T22:07:14.080Z,101280.34
2023-09-01T22:12:15.940Z,101291.63
2023-09-01T22:17:17.908Z,101287.38
2023-09-01T22:22:19.426Z,101288.25
2023-09-01T22:27:20.942Z,101284.34
2023-09-01T22:32:22.456Z,101288.34
2023-09-01T22:37:23.985Z,101287.31
2023-09-01T22:42:25.752Z,101286.97
2023-09-01T22:47:27.270Z,101295.97
2023-09-01T22:52:28.792Z,101302.50
2023-09-01T22:57:30.306Z,101309.22
2023-09-01T23:02:32.219Z,101308.59
2023-09-01T23:07:33.599Z,101306.34
2023-09-01T23:12:35.204Z,101308.69
2023-09-01T23:17:37.003Z,101316.78
2023-09-01T23:22:38.520Z,101311.44
2023-09-01T23:27:43.224Z,101316.47
2023-09-01T23:32:44.746Z,101312.59
2023-09-01T23:37:46.277Z,101313.00
2023-09-01T23:42:47.825Z,101312.34
2023-09-01T23:47:52.439Z,101309.72
2023-09-01T23:52:54.184Z,101313.41
2023-09-01T23:57:55.930Z,101313.53
